Time;durP1;ratioP1;P1;durP2;ratioP2;P2;SDS_P1;SDS_P2;PMS_P1;PMS_P2;Temp;Humidity;BMP_temperature;BMP_pressure;BME280_temperature;BME280_humidity;BME280_pressure;Samples;Min_cycle;Max_cycle;Signal;HPM_P1;HPM_P2
2021/01/25 00:01:17;;;;;;;25.60;17.80;;;;;;;;;;4969078;28;21134;-54
2021/01/25 00:03:42;;;;;;;23.50;16.43;;;;;;;;;;4969510;28;20599;-52
2021/01/25 00:06:07;;;;;;;24.20;17.33;;;;;;;;;;4968374;28;20187;-52
2021/01/25 00:08:32;;;;;;;25.40;18.87;;;;;;;;;;4967024;28;20172;-53
2021/01/25 00:10:57;;;;;;;23.67;17.77;;;;;;;;;;4967947;28;20652;-54
2021/01/25 00:13:23;;;;;;;32.95;20.75;;;;;;;;;;4968846;28;20243;-54
2021/01/25 00:15:48;;;;;;;24.20;18.03;;;;;;;;;;4962108;28;20232;-53
2021/01/25 00:18:13;;;;;;;30.57;19.00;;;;;;;;;;4969638;28;20184;-51
2021/01/25 00:20:39;;;;;;;26.63;20.00;;;;;;;;;;4969073;28;20706;-54
2021/01/25 00:23:04;;;;;;;24.50;18.50;;;;;;;;;;4966262;28;20332;-54
2021/01/25 00:25:29;;;;;;;25.05;18.33;;;;;;;;;;4972601;28;20908;-54
2021/01/25 00:27:54;;;;;;;25.08;18.95;;;;;;;;;;4966705;28;20646;-53
2021/01/25 00:30:19;;;;;;;23.48;18.23;;;;;;;;;;4972013;28;20239;-54
2021/01/25 00:32:45;;;;;;;24.40;19.00;;;;;;;;;;4967888;28;20191;-53
2021/01/25 00:35:11;;;;;;;26.20;19.17;;;;;;;;;;4972297;28;20191;-53
2021/01/25 00:37:36;;;;;;;26.93;18.93;;;;;;;;;;4962851;28;21218;-53
2021/01/25 00:40:02;;;;;;;30.80;20.60;;;;;;;;;;4969147;28;20599;-52
2021/01/25 00:42:27;;;;;;;28.20;20.30;;;;;;;;;;4971141;28;20680;-53
2021/01/25 00:44:52;;;;;;;26.97;19.70;;;;;;;;;;4971896;28;20252;-55
2021/01/25 00:47:17;;;;;;;24.97;18.70;;;;;;;;;;4972296;28;20240;-53
2021/01/25 00:49:43;;;;;;;25.37;18.47;;;;;;;;;;4962614;28;20468;-53
2021/01/25 00:52:08;;;;;;;32.63;21.40;;;;;;;;;;4965514;28;20198;-53
2021/01/25 00:54:33;;;;;;;27.00;19.80;;;;;;;;;;4966045;28;20280;-53
2021/01/25 00:56:58;;;;;;;26.20;19.30;;;;;;;;;;4967086;28;20609;-53
2021/01/25 00:59:24;;;;;;;23.92;18.27;;;;;;;;;;4961446;28;20190;-53
2021/01/25 01:01:49;;;;;;;25.50;19.73;;;;;;;;;;4966830;28;20220;-53
2021/01/25 01:04:14;;;;;;;26.02;19.35;;;;;;;;;;4971044;28;20257;-53
2021/01/25 01:06:40;;;;;;;27.08;20.38;;;;;;;;;;4971072;28;20177;-53
2021/01/25 01:09:05;;;;;;;27.40;19.93;;;;;;;;;;4966654;28;20174;-52
2021/01/25 01:11:30;;;;;;;23.58;17.98;;;;;;;;;;4967314;28;20605;-54
2021/01/25 01:13:55;;;;;;;26.77;17.23;;;;;;;;;;4969417;28;20202;-53
2021/01/25 01:16:20;;;;;;;21.88;16.50;;;;;;;;;;4970052;28;20542;-53
2021/01/25 01:18:46;;;;;;;21.33;16.45;;;;;;;;;;4958281;28;20188;-53
2021/01/25 01:21:11;;;;;;;24.50;17.83;;;;;;;;;;4960748;28;20220;-53
2021/01/25 01:23:36;;;;;;;21.88;17.60;;;;;;;;;;4966582;28;20237;-53
2021/01/25 01:26:01;;;;;;;20.37;15.60;;;;;;;;;;4969229;28;20210;-52
2021/01/25 01:28:26;;;;;;;25.05;17.88;;;;;;;;;;4964653;28;20207;-53
2021/01/25 01:30:51;;;;;;;25.50;17.67;;;;;;;;;;4966001;28;20181;-53
2021/01/25 01:33:17;;;;;;;21.33;16.60;;;;;;;;;;4957138;28;20535;-53
2021/01/25 01:35:42;;;;;;;23.17;17.58;;;;;;;;;;4968000;28;20224;-53
2021/01/25 01:38:07;;;;;;;26.35;19.75;;;;;;;;;;4970229;28;20197;-53
2021/01/25 01:40:32;;;;;;;24.63;17.52;;;;;;;;;;4965577;28;20200;-54
2021/01/25 01:42:57;;;;;;;21.47;17.50;;;;;;;;;;4967347;28;20209;-52
2021/01/25 01:45:22;;;;;;;23.87;17.17;;;;;;;;;;4971099;28;20650;-52
2021/01/25 01:47:48;;;;;;;21.13;16.63;;;;;;;;;;4969056;28;20176;-51
2021/01/25 01:50:13;;;;;;;23.90;18.47;;;;;;;;;;4970091;28;20281;-54
2021/01/25 01:52:38;;;;;;;24.20;18.23;;;;;;;;;;4968338;28;20268;-53
2021/01/25 01:55:04;;;;;;;25.75;19.48;;;;;;;;;;4969020;28;20180;-52
2021/01/25 01:57:31;;;;;;;25.13;18.53;;;;;;;;;;4969192;28;20557;-53
2021/01/25 01:59:56;;;;;;;23.43;18.13;;;;;;;;;;4970054;28;20479;-53
2021/01/25 02:02:22;;;;;;;21.53;16.53;;;;;;;;;;4965789;28;20691;-52
2021/01/25 02:04:47;;;;;;;24.53;18.10;;;;;;;;;;4962585;28;20185;-53
2021/01/25 02:07:14;;;;;;;23.60;16.73;;;;;;;;;;4964027;28;20200;-52
2021/01/25 02:09:40;;;;;;;22.43;17.93;;;;;;;;;;4968194;28;20656;-53
2021/01/25 02:12:05;;;;;;;21.60;15.90;;;;;;;;;;4967434;28;20610;-53
2021/01/25 02:14:31;;;;;;;23.33;16.40;;;;;;;;;;4969950;28;20664;-53
2021/01/25 02:16:56;;;;;;;19.40;16.77;;;;;;;;;;4969258;28;22199;-53
2021/01/25 02:19:36;;;;;;;23.00;17.43;;;;;;;;;;4970075;28;20630;-53
2021/01/25 02:22:07;;;;;;;25.67;18.97;;;;;;;;;;4967721;28;20180;-53
2021/01/25 02:24:34;;;;;;;27.03;19.40;;;;;;;;;;4963110;28;21006;-53
2021/01/25 02:27:07;;;;;;;24.17;18.97;;;;;;;;;;4959981;28;20620;-53
2021/01/25 02:29:32;;;;;;;25.10;20.27;;;;;;;;;;4962585;28;20597;-53
2021/01/25 02:31:58;;;;;;;24.37;19.87;;;;;;;;;;4967306;28;20671;-53
2021/01/25 02:34:24;;;;;;;22.63;17.60;;;;;;;;;;4969978;28;20208;-53
2021/01/25 02:36:50;;;;;;;26.37;18.30;;;;;;;;;;4967056;28;20188;-52
2021/01/25 02:39:16;;;;;;;22.00;18.80;;;;;;;;;;4967635;28;20612;-52
2021/01/25 02:41:42;;;;;;;24.80;18.07;;;;;;;;;;4964723;28;20179;-51
2021/01/25 02:44:07;;;;;;;28.70;20.60;;;;;;;;;;4968312;28;20204;-52
2021/01/25 02:46:33;;;;;;;22.97;17.60;;;;;;;;;;4969919;28;20594;-50
2021/01/25 02:48:58;;;;;;;24.97;18.23;;;;;;;;;;4970027;28;20673;-51
2021/01/25 02:51:24;;;;;;;27.87;19.07;;;;;;;;;;4967115;28;20192;-52
2021/01/25 02:53:49;;;;;;;26.30;19.43;;;;;;;;;;4968106;28;20196;-53
2021/01/25 02:56:14;;;;;;;33.47;20.53;;;;;;;;;;4963659;28;20177;-53
2021/01/25 02:58:39;;;;;;;28.17;20.80;;;;;;;;;;4969512;28;20594;-53
2021/01/25 03:01:04;;;;;;;28.03;20.20;;;;;;;;;;4967515;28;20181;-53
2021/01/25 03:03:30;;;;;;;26.93;19.90;;;;;;;;;;4963877;28;20255;-52
2021/01/25 03:05:56;;;;;;;34.10;22.93;;;;;;;;;;4968094;28;20180;-53
2021/01/25 03:08:22;;;;;;;29.63;21.90;;;;;;;;;;4961843;28;20551;-51
2021/01/25 03:10:47;;;;;;;29.30;20.80;;;;;;;;;;4967240;28;20871;-51
2021/01/25 03:13:13;;;;;;;26.93;20.50;;;;;;;;;;4965359;28;20572;-51
2021/01/25 03:15:39;;;;;;;31.87;22.77;;;;;;;;;;4969026;28;20224;-52
2021/01/25 03:18:04;;;;;;;35.20;23.30;;;;;;;;;;4953506;28;20650;-52
2021/01/25 03:20:29;;;;;;;41.17;24.70;;;;;;;;;;4965183;28;20638;-52
2021/01/25 03:22:55;;;;;;;33.80;23.60;;;;;;;;;;4958750;28;20216;-52
2021/01/25 03:25:20;;;;;;;37.33;24.63;;;;;;;;;;4969582;28;20211;-52
2021/01/25 03:27:45;;;;;;;31.25;22.20;;;;;;;;;;4957477;28;20223;-51
2021/01/25 03:30:12;;;;;;;29.10;20.30;;;;;;;;;;4969002;28;20184;-53
2021/01/25 03:32:37;;;;;;;31.77;21.60;;;;;;;;;;4969537;28;20180;-52
2021/01/25 03:35:03;;;;;;;26.67;19.10;;;;;;;;;;4965005;28;21162;-52
2021/01/25 03:37:28;;;;;;;24.70;18.17;;;;;;;;;;4968414;28;20676;-52
2021/01/25 03:39:53;;;;;;;24.00;16.33;;;;;;;;;;4965030;28;20619;-52
2021/01/25 03:42:18;;;;;;;28.58;17.77;;;;;;;;;;4972253;28;20217;-52
2021/01/25 03:44:44;;;;;;;23.40;17.97;;;;;;;;;;4956236;28;20181;-52
2021/01/25 03:47:09;;;;;;;25.07;17.23;;;;;;;;;;4965619;28;20181;-52
2021/01/25 03:49:34;;;;;;;25.85;17.95;;;;;;;;;;4967618;28;20185;-52
2021/01/25 03:51:59;;;;;;;22.70;16.80;;;;;;;;;;4966910;28;20197;-52
2021/01/25 03:54:24;;;;;;;21.30;15.77;;;;;;;;;;4961022;28;20274;-52
2021/01/25 03:56:49;;;;;;;19.85;14.05;;;;;;;;;;4966388;28;20651;-52
2021/01/25 03:59:14;;;;;;;20.80;13.87;;;;;;;;;;4966819;28;20176;-52
2021/01/25 04:01:40;;;;;;;25.38;17.35;;;;;;;;;;4974354;28;20267;-52
2021/01/25 04:04:05;;;;;;;24.00;17.40;;;;;;;;;;4972257;28;20314;-52
2021/01/25 04:06:30;;;;;;;30.98;19.30;;;;;;;;;;4964244;28;20591;-53
2021/01/25 04:08:55;;;;;;;24.70;15.00;;;;;;;;;;4960538;28;20182;-52
2021/01/25 04:11:21;;;;;;;23.63;14.63;;;;;;;;;;4966556;28;20177;-54
2021/01/25 04:13:46;;;;;;;24.75;15.32;;;;;;;;;;4969471;28;20204;-54
2021/01/25 04:16:11;;;;;;;18.77;14.20;;;;;;;;;;4967379;28;20554;-53
2021/01/25 04:18:36;;;;;;;22.93;14.03;;;;;;;;;;4972635;28;20189;-53
2021/01/25 04:21:01;;;;;;;17.97;13.60;;;;;;;;;;4970769;28;20275;-53
2021/01/25 04:23:27;;;;;;;17.10;13.37;;;;;;;;;;4970469;28;20556;-52
2021/01/25 04:25:52;;;;;;;20.23;14.48;;;;;;;;;;4968173;28;20202;-52
2021/01/25 04:28:17;;;;;;;17.53;13.60;;;;;;;;;;4970417;28;20194;-52
2021/01/25 04:30:42;;;;;;;18.48;14.73;;;;;;;;;;4971118;28;20181;-52
2021/01/25 04:33:07;;;;;;;18.23;14.52;;;;;;;;;;4970544;28;20186;-52
2021/01/25 04:35:33;;;;;;;17.95;13.93;;;;;;;;;;4970232;28;20183;-52
2021/01/25 04:37:59;;;;;;;18.00;13.40;;;;;;;;;;4957260;28;20305;-52
2021/01/25 04:40:24;;;;;;;20.50;13.97;;;;;;;;;;4966129;28;20639;-52
2021/01/25 04:42:50;;;;;;;18.50;13.63;;;;;;;;;;4959679;28;20326;-52
2021/01/25 04:45:15;;;;;;;19.63;15.60;;;;;;;;;;4971553;28;20657;-52
2021/01/25 04:47:41;;;;;;;17.37;12.80;;;;;;;;;;4968670;28;20605;-52
2021/01/25 04:50:07;;;;;;;16.90;13.30;;;;;;;;;;4965304;28;20606;-52
2021/01/25 04:52:32;;;;;;;18.43;13.47;;;;;;;;;;4955463;28;20614;-53
2021/01/25 04:54:57;;;;;;;16.50;12.73;;;;;;;;;;4964803;28;20188;-52
2021/01/25 04:57:23;;;;;;;19.53;13.37;;;;;;;;;;4967911;28;20200;-52
2021/01/25 04:59:48;;;;;;;15.97;12.00;;;;;;;;;;4968625;28;20207;-52
2021/01/25 05:02:13;;;;;;;14.00;11.50;;;;;;;;;;4959593;28;20245;-53
2021/01/25 05:04:39;;;;;;;17.80;13.03;;;;;;;;;;4963509;28;20175;-52
2021/01/25 05:07:04;;;;;;;16.77;12.83;;;;;;;;;;4964604;28;20173;-52
2021/01/25 05:09:29;;;;;;;17.63;14.00;;;;;;;;;;4966992;28;20264;-52
2021/01/25 05:11:59;;;;;;;22.07;14.93;;;;;;;;;;4967823;28;20570;-52
2021/01/25 05:14:24;;;;;;;15.30;12.80;;;;;;;;;;4971706;28;20244;-54
2021/01/25 05:16:49;;;;;;;17.50;13.50;;;;;;;;;;4971167;28;20608;-51
2021/01/25 05:19:14;;;;;;;17.20;14.23;;;;;;;;;;4965868;28;20195;-53
2021/01/25 05:21:44;;;;;;;18.67;13.25;;;;;;;;;;4969656;28;20247;-54
2021/01/25 05:24:11;;;;;;;20.27;14.23;;;;;;;;;;4954401;28;20573;-51
2021/01/25 05:26:39;;;;;;;19.37;14.60;;;;;;;;;;4961495;28;20620;-52
2021/01/25 05:29:05;;;;;;;15.20;12.00;;;;;;;;;;4966272;28;20603;-51
2021/01/25 05:31:30;;;;;;;21.93;14.87;;;;;;;;;;4968972;28;20614;-52
2021/01/25 05:33:55;;;;;;;19.57;14.07;;;;;;;;;;4971862;28;20204;-53
2021/01/25 05:36:29;;;;;;;17.87;13.00;;;;;;;;;;4964742;28;20199;-51
2021/01/25 05:38:54;;;;;;;16.00;12.23;;;;;;;;;;4969808;28;20188;-51
2021/01/25 05:41:20;;;;;;;16.17;12.20;;;;;;;;;;4968138;28;20944;-52
2021/01/25 05:43:46;;;;;;;19.30;14.60;;;;;;;;;;4968419;28;20291;-52
2021/01/25 05:46:12;;;;;;;17.80;13.57;;;;;;;;;;4970738;28;20181;-53
2021/01/25 05:48:38;;;;;;;19.03;13.77;;;;;;;;;;4970797;28;20173;-52
2021/01/25 05:51:14;;;;;;;21.87;14.30;;;;;;;;;;4969817;28;21244;-52
2021/01/25 05:53:40;;;;;;;23.37;14.60;;;;;;;;;;4969239;28;20619;-52
2021/01/25 05:56:06;;;;;;;19.07;13.77;;;;;;;;;;4969089;28;20619;-52
2021/01/25 05:58:31;;;;;;;20.37;13.10;;;;;;;;;;4968480;28;20882;-52
2021/01/25 06:00:56;;;;;;;17.75;13.63;;;;;;;;;;4969051;28;20473;-52
2021/01/25 06:03:22;;;;;;;18.27;14.40;;;;;;;;;;4970319;28;20621;-52
2021/01/25 06:05:47;;;;;;;16.07;12.50;;;;;;;;;;4966870;28;20183;-52
2021/01/25 06:08:18;;;;;;;20.27;13.00;;;;;;;;;;4964736;28;20210;-51
2021/01/25 06:11:02;;;;;;;24.43;15.20;;;;;;;;;;4965548;28;20552;-52
2021/01/25 06:13:30;;;;;;;20.93;14.33;;;;;;;;;;4962846;28;20880;-53
2021/01/25 06:15:56;;;;;;;18.90;13.27;;;;;;;;;;4964953;28;20691;-52
2021/01/25 06:18:22;;;;;;;19.63;15.00;;;;;;;;;;4962848;28;20691;-52
2021/01/25 06:20:47;;;;;;;19.47;14.80;;;;;;;;;;4964902;28;20599;-52
2021/01/25 06:23:13;;;;;;;22.10;15.73;;;;;;;;;;4966081;28;20211;-52
2021/01/25 06:25:38;;;;;;;20.73;14.30;;;;;;;;;;4967570;28;20628;-52
2021/01/25 06:28:04;;;;;;;20.30;14.63;;;;;;;;;;4965502;28;20188;-53
2021/01/25 06:30:30;;;;;;;24.23;15.27;;;;;;;;;;4965521;28;20203;-53
2021/01/25 06:32:57;;;;;;;19.33;13.73;;;;;;;;;;4966108;28;20237;-52
2021/01/25 06:35:22;;;;;;;19.77;13.30;;;;;;;;;;4967196;28;20638;-52
2021/01/25 06:37:55;;;;;;;22.53;13.20;;;;;;;;;;4965512;28;20644;-52
2021/01/25 06:40:24;;;;;;;17.73;13.70;;;;;;;;;;4964270;28;21020;-52
2021/01/25 06:42:50;;;;;;;18.27;15.23;;;;;;;;;;4963545;28;20652;-52
2021/01/25 06:45:15;;;;;;;20.57;14.90;;;;;;;;;;4965290;28;20618;-52
2021/01/25 06:47:41;;;;;;;21.63;15.00;;;;;;;;;;4966608;28;20186;-52
2021/01/25 06:50:07;;;;;;;22.10;14.97;;;;;;;;;;4964984;28;20190;-52
2021/01/25 06:52:35;;;;;;;22.70;15.10;;;;;;;;;;4966443;28;20264;-52
2021/01/25 06:55:01;;;;;;;23.20;16.27;;;;;;;;;;4964978;28;20679;-52
2021/01/25 06:57:27;;;;;;;21.70;15.73;;;;;;;;;;4965397;28;20624;-53
2021/01/25 06:59:52;;;;;;;21.07;14.57;;;;;;;;;;4965990;28;20705;-53
2021/01/25 07:02:22;;;;;;;23.70;15.67;;;;;;;;;;4964434;28;20206;-53
2021/01/25 07:04:48;;;;;;;22.03;15.17;;;;;;;;;;4965883;28;20262;-52
2021/01/25 07:07:27;;;;;;;21.53;14.30;;;;;;;;;;4968939;28;20751;-52
2021/01/25 07:09:53;;;;;;;24.00;15.00;;;;;;;;;;4968517;28;20695;-52
2021/01/25 07:12:19;;;;;;;21.60;14.57;;;;;;;;;;4964563;28;20711;-51
2021/01/25 07:14:45;;;;;;;22.90;14.53;;;;;;;;;;4965860;28;20658;-52
2021/01/25 07:17:10;;;;;;;19.93;14.40;;;;;;;;;;4969405;28;20624;-53
2021/01/25 07:19:35;;;;;;;20.50;15.77;;;;;;;;;;4969081;28;20213;-52
2021/01/25 07:22:02;;;;;;;22.00;14.37;;;;;;;;;;4967230;28;20550;-52
2021/01/25 07:24:27;;;;;;;22.77;15.63;;;;;;;;;;4964674;28;20649;-53
2021/01/25 07:26:53;;;;;;;20.67;15.00;;;;;;;;;;4964340;28;20607;-53
2021/01/25 07:29:19;;;;;;;21.90;14.90;;;;;;;;;;4969712;28;20174;-53
2021/01/25 07:31:44;;;;;;;18.23;15.37;;;;;;;;;;4978983;28;20590;-53
2021/01/25 07:34:09;;;;;;;19.30;14.30;;;;;;;;;;4973625;28;20186;-53
2021/01/25 07:36:35;;;;;;;19.13;13.40;;;;;;;;;;4969906;28;20215;-53
2021/01/25 07:39:00;;;;;;;15.83;13.00;;;;;;;;;;4968835;28;20297;-53
2021/01/25 07:41:25;;;;;;;20.92;15.00;;;;;;;;;;4968199;28;20262;-53
2021/01/25 07:43:50;;;;;;;18.13;14.00;;;;;;;;;;4966445;28;20211;-53
2021/01/25 07:46:21;;;;;;;23.58;15.23;;;;;;;;;;4972443;28;20180;-52
2021/01/25 07:48:50;;;;;;;23.53;15.30;;;;;;;;;;4968650;28;20719;-54
2021/01/25 07:51:22;;;;;;;23.67;15.30;;;;;;;;;;4971078;28;20641;-54
2021/01/25 07:53:47;;;;;;;19.23;14.80;;;;;;;;;;4969595;28;20623;-54
2021/01/25 07:56:17;;;;;;;20.70;14.70;;;;;;;;;;4968276;28;21004;-52
2021/01/25 07:58:42;;;;;;;18.37;14.30;;;;;;;;;;4970579;28;20257;-52
2021/01/25 08:01:15;;;;;;;21.50;15.32;;;;;;;;;;4971414;28;21419;-52
2021/01/25 08:03:44;;;;;;;23.07;15.70;;;;;;;;;;4969272;28;20698;-54
2021/01/25 08:06:10;;;;;;;21.40;15.87;;;;;;;;;;4971757;28;20582;-53
2021/01/25 08:08:36;;;;;;;20.57;15.73;;;;;;;;;;4971320;28;20611;-54
2021/01/25 08:11:05;;;;;;;17.87;13.60;;;;;;;;;;4969461;28;20728;-53
2021/01/25 08:13:33;;;;;;;20.10;14.03;;;;;;;;;;4969929;28;20244;-53
2021/01/25 08:16:03;;;;;;;21.40;15.13;;;;;;;;;;4971570;28;20648;-52
2021/01/25 08:18:41;;;;;;;20.20;14.90;;;;;;;;;;4971484;28;20593;-53
2021/01/25 08:21:06;;;;;;;22.20;14.83;;;;;;;;;;4971356;28;20606;-53
2021/01/25 08:23:38;;;;;;;19.00;13.87;;;;;;;;;;4970750;28;20661;-53
2021/01/25 08:26:03;;;;;;;17.20;13.27;;;;;;;;;;4959547;28;20280;-53
2021/01/25 08:28:33;;;;;;;17.03;13.30;;;;;;;;;;4971749;28;20681;-53
2021/01/25 08:31:15;;;;;;;19.33;15.00;;;;;;;;;;4971169;28;20453;-52
2021/01/25 08:33:42;;;;;;;19.07;13.93;;;;;;;;;;4970626;28;20605;-53
2021/01/25 08:36:08;;;;;;;17.23;12.80;;;;;;;;;;4968610;28;20715;-53
2021/01/25 08:38:33;;;;;;;17.67;13.30;;;;;;;;;;4976106;28;20608;-53
2021/01/25 08:40:59;;;;;;;18.30;13.60;;;;;;;;;;4964393;28;21105;-53
2021/01/25 08:43:26;;;;;;;18.53;14.23;;;;;;;;;;4967078;28;20202;-53
2021/01/25 08:45:52;;;;;;;17.03;12.60;;;;;;;;;;4971005;28;20605;-54
2021/01/25 08:48:31;;;;;;;19.57;13.47;;;;;;;;;;4969933;28;20691;-53
2021/01/25 08:51:06;;;;;;;16.13;13.30;;;;;;;;;;4968684;28;20609;-53
2021/01/25 08:53:31;;;;;;;16.50;12.67;;;;;;;;;;4971064;28;20948;-53
2021/01/25 08:55:57;;;;;;;15.90;13.10;;;;;;;;;;4969310;28;20607;-53
2021/01/25 08:58:25;;;;;;;16.60;12.90;;;;;;;;;;4970055;28;20178;-52
2021/01/25 09:00:50;;;;;;;16.03;12.47;;;;;;;;;;4968285;28;20604;-52
2021/01/25 09:03:16;;;;;;;16.87;11.67;;;;;;;;;;4970857;28;20676;-52
2021/01/25 09:05:41;;;;;;;16.33;12.67;;;;;;;;;;4968154;28;20273;-53
2021/01/25 09:08:07;;;;;;;16.37;12.60;;;;;;;;;;4970809;28;20175;-53
2021/01/25 09:10:32;;;;;;;14.67;11.93;;;;;;;;;;4971023;28;20205;-53
2021/01/25 09:12:57;;;;;;;14.98;12.15;;;;;;;;;;4965827;28;20228;-53
2021/01/25 09:15:23;;;;;;;18.80;12.27;;;;;;;;;;4969995;28;20590;-53
2021/01/25 09:17:48;;;;;;;14.83;12.57;;;;;;;;;;4970466;28;20188;-52
2021/01/25 09:20:14;;;;;;;17.60;13.03;;;;;;;;;;4969521;28;20195;-53
2021/01/25 09:22:39;;;;;;;16.93;12.33;;;;;;;;;;4968030;28;20837;-53
2021/01/25 09:25:04;;;;;;;17.50;13.70;;;;;;;;;;4969480;28;20281;-53
2021/01/25 09:27:30;;;;;;;17.60;12.80;;;;;;;;;;4967112;28;20183;-53
2021/01/25 09:29:55;;;;;;;16.40;12.93;;;;;;;;;;4969444;28;20234;-53
2021/01/25 09:32:20;;;;;;;15.18;12.40;;;;;;;;;;4967978;28;20206;-54
2021/01/25 09:34:45;;;;;;;18.30;14.77;;;;;;;;;;4970125;28;20397;-53
2021/01/25 09:37:12;;;;;;;17.50;13.77;;;;;;;;;;4966979;28;20189;-52
2021/01/25 09:39:37;;;;;;;18.90;14.70;;;;;;;;;;4951390;28;20665;-52
2021/01/25 09:42:03;;;;;;;20.80;14.77;;;;;;;;;;4965447;28;21174;-53
2021/01/25 09:44:28;;;;;;;19.30;13.90;;;;;;;;;;4969142;28;20208;-53
2021/01/25 09:46:55;;;;;;;15.13;13.07;;;;;;;;;;4956835;28;20179;-53
2021/01/25 09:49:21;;;;;;;18.07;14.67;;;;;;;;;;4952220;28;20176;-54
2021/01/25 09:51:46;;;;;;;18.85;13.38;;;;;;;;;;4963487;28;20654;-59
2021/01/25 09:54:11;;;;;;;12.83;11.37;;;;;;;;;;4951091;29;20193;-54
2021/01/25 09:56:36;;;;;;;12.17;10.17;;;;;;;;;;4962936;28;20197;-53
2021/01/25 09:59:01;;;;;;;13.00;10.15;;;;;;;;;;4969178;28;20176;-54
2021/01/25 10:01:26;;;;;;;12.18;10.52;;;;;;;;;;4960783;28;20392;-54
2021/01/25 10:03:52;;;;;;;12.40;9.85;;;;;;;;;;4951376;28;20859;-54
2021/01/25 10:06:17;;;;;;;12.25;10.25;;;;;;;;;;4967751;28;20221;-54
2021/01/25 10:08:43;;;;;;;13.63;10.73;;;;;;;;;;4952069;28;20225;-54
2021/01/25 10:11:08;;;;;;;13.93;11.77;;;;;;;;;;4962786;28;20257;-54
2021/01/25 10:13:33;;;;;;;13.57;10.55;;;;;;;;;;4969434;28;20737;-54
2021/01/25 10:15:59;;;;;;;11.40;9.80;;;;;;;;;;4963984;28;20253;-54
2021/01/25 10:18:24;;;;;;;12.53;9.50;;;;;;;;;;4951212;28;20229;-54
2021/01/25 10:20:49;;;;;;;9.98;8.10;;;;;;;;;;4963824;28;20180;-52
2021/01/25 10:23:14;;;;;;;10.83;8.43;;;;;;;;;;4958301;28;20219;-52
2021/01/25 10:25:39;;;;;;;9.43;7.97;;;;;;;;;;4959077;28;20189;-52
2021/01/25 10:28:04;;;;;;;9.40;7.90;;;;;;;;;;4969558;28;20189;-52
2021/01/25 10:30:30;;;;;;;10.80;8.73;;;;;;;;;;4965887;28;20274;-53
2021/01/25 10:32:55;;;;;;;12.93;9.50;;;;;;;;;;4970133;28;20181;-53
2021/01/25 10:35:20;;;;;;;14.97;11.37;;;;;;;;;;4965623;28;20189;-53
2021/01/25 10:37:46;;;;;;;15.23;12.37;;;;;;;;;;4957927;28;20178;-53
2021/01/25 10:40:12;;;;;;;17.10;12.90;;;;;;;;;;4959772;28;20174;-52
2021/01/25 10:42:37;;;;;;;16.03;12.37;;;;;;;;;;4968429;28;21224;-52
2021/01/25 10:45:03;;;;;;;17.77;13.10;;;;;;;;;;4968064;28;20606;-53
2021/01/25 10:47:28;;;;;;;16.50;13.00;;;;;;;;;;4969264;28;20181;-52
2021/01/25 10:49:53;;;;;;;16.03;11.47;;;;;;;;;;4973802;28;20536;-53
2021/01/25 10:52:18;;;;;;;14.53;11.90;;;;;;;;;;4980475;28;20281;-53
2021/01/25 10:54:43;;;;;;;15.90;12.63;;;;;;;;;;4968561;28;20205;-53
2021/01/25 10:57:09;;;;;;;15.53;12.47;;;;;;;;;;4968043;28;20187;-53
2021/01/25 10:59:34;;;;;;;14.80;13.00;;;;;;;;;;4966967;28;20207;-54
2021/01/25 11:02:00;;;;;;;16.30;12.60;;;;;;;;;;4966816;28;20185;-55
2021/01/25 11:04:25;;;;;;;15.73;12.27;;;;;;;;;;4968375;28;20663;-54
2021/01/25 11:06:50;;;;;;;15.47;13.00;;;;;;;;;;4963355;28;20184;-53
2021/01/25 11:09:16;;;;;;;17.23;13.85;;;;;;;;;;4963237;28;20213;-53
2021/01/25 11:11:41;;;;;;;16.20;13.60;;;;;;;;;;4957708;28;20225;-55
2021/01/25 11:14:06;;;;;;;18.25;13.63;;;;;;;;;;4962320;28;20201;-54
2021/01/25 11:16:32;;;;;;;22.10;11.63;;;;;;;;;;4962147;28;20188;-54
2021/01/25 11:18:57;;;;;;;13.17;11.87;;;;;;;;;;4966930;28;20178;-54
2021/01/25 11:21:23;;;;;;;13.97;11.13;;;;;;;;;;4966998;28;20594;-54
2021/01/25 11:23:50;;;;;;;10.77;8.95;;;;;;;;;;4967611;28;20212;-54
2021/01/25 11:26:15;;;;;;;9.03;7.93;;;;;;;;;;4968148;28;20169;-54
2021/01/25 11:28:40;;;;;;;7.82;6.93;;;;;;;;;;4968183;28;20593;-54
2021/01/25 11:31:07;;;;;;;8.77;7.38;;;;;;;;;;4968908;28;20191;-54
2021/01/25 11:33:32;;;;;;;10.30;8.47;;;;;;;;;;4968415;28;20704;-54
2021/01/25 11:35:57;;;;;;;9.50;8.32;;;;;;;;;;4965270;28;21159;-55
2021/01/25 11:38:22;;;;;;;11.15;9.20;;;;;;;;;;4958660;28;20213;-54
2021/01/25 11:40:47;;;;;;;11.13;9.50;;;;;;;;;;4965472;28;20520;-54
2021/01/25 11:43:12;;;;;;;13.00;11.60;;;;;;;;;;4967873;28;20206;-53
2021/01/25 11:45:38;;;;;;;13.77;10.77;;;;;;;;;;4966507;28;20225;-54
2021/01/25 11:48:04;;;;;;;12.33;9.90;;;;;;;;;;4968269;28;20206;-54
2021/01/25 11:50:29;;;;;;;12.70;9.90;;;;;;;;;;4968002;28;20167;-53
2021/01/25 11:52:57;;;;;;;12.75;10.80;;;;;;;;;;4967185;28;20599;-52
2021/01/25 11:55:25;;;;;;;12.90;9.50;;;;;;;;;;4968571;28;20183;-54
2021/01/25 11:57:51;;;;;;;14.10;9.70;;;;;;;;;;4969391;28;20602;-52
2021/01/25 12:00:16;;;;;;;11.55;9.07;;;;;;;;;;4964700;28;20632;-53
2021/01/25 12:02:41;;;;;;;11.40;9.83;;;;;;;;;;4968249;28;20209;-54
2021/01/25 12:05:08;;;;;;;14.37;10.27;;;;;;;;;;4968707;28;20250;-54
2021/01/25 12:07:39;;;;;;;12.90;10.10;;;;;;;;;;4969936;28;20258;-54
2021/01/25 12:10:06;;;;;;;11.47;9.30;;;;;;;;;;4961251;28;20661;-54
2021/01/25 12:12:31;;;;;;;11.10;9.50;;;;;;;;;;4965000;28;21234;-53
2021/01/25 12:14:56;;;;;;;11.90;10.00;;;;;;;;;;4960343;28;20653;-53
2021/01/25 12:17:21;;;;;;;9.20;8.20;;;;;;;;;;4952290;28;20211;-54
2021/01/25 12:19:47;;;;;;;11.80;9.45;;;;;;;;;;4967299;28;20667;-54
2021/01/25 12:22:12;;;;;;;10.90;8.73;;;;;;;;;;4972866;28;20174;-54
2021/01/25 12:24:37;;;;;;;11.33;9.50;;;;;;;;;;4967454;28;20182;-53
2021/01/25 12:27:03;;;;;;;10.50;8.70;;;;;;;;;;4969484;28;20178;-54
2021/01/25 12:29:29;;;;;;;9.80;8.40;;;;;;;;;;4967020;28;20598;-53
2021/01/25 12:31:54;;;;;;;13.13;9.87;;;;;;;;;;4953490;28;20696;-55
2021/01/25 12:34:19;;;;;;;13.30;9.30;;;;;;;;;;4957442;28;20223;-55
2021/01/25 12:36:44;;;;;;;13.83;9.37;;;;;;;;;;4957834;28;20180;-55
2021/01/25 12:39:09;;;;;;;13.38;9.70;;;;;;;;;;4971924;28;20176;-54
2021/01/25 12:41:35;;;;;;;10.30;9.20;;;;;;;;;;4980635;28;20200;-54
2021/01/25 12:44:01;;;;;;;12.60;10.13;;;;;;;;;;4968837;28;20217;-54
2021/01/25 12:46:27;;;;;;;11.63;10.43;;;;;;;;;;4949673;28;24461;-55
2021/01/25 12:48:52;;;;;;;12.30;11.10;;;;;;;;;;4951032;29;24398;-54
2021/01/25 12:51:17;;;;;;;11.77;10.50;;;;;;;;;;4966138;28;20830;-54
2021/01/25 12:53:42;;;;;;;12.83;10.83;;;;;;;;;;4968414;28;20191;-55
2021/01/25 12:56:08;;;;;;;13.60;10.33;;;;;;;;;;4974166;28;20194;-53
2021/01/25 12:58:33;;;;;;;13.63;11.33;;;;;;;;;;4956126;28;20577;-53
2021/01/25 13:00:58;;;;;;;10.48;9.32;;;;;;;;;;4965543;28;20542;-54
2021/01/25 13:03:24;;;;;;;9.00;8.10;;;;;;;;;;4970346;28;20762;-53
2021/01/25 13:05:49;;;;;;;11.37;8.97;;;;;;;;;;4970000;28;20182;-54
2021/01/25 13:08:14;;;;;;;10.83;8.70;;;;;;;;;;4971313;28;20178;-53
2021/01/25 13:10:39;;;;;;;11.90;9.00;;;;;;;;;;4968949;28;20746;-52
2021/01/25 13:13:05;;;;;;;12.55;9.75;;;;;;;;;;4969179;28;20204;-53
2021/01/25 13:15:30;;;;;;;9.93;7.97;;;;;;;;;;4958976;28;20242;-53
2021/01/25 13:17:55;;;;;;;;;;;;;;;;;;4962371;28;20039;-53
2021/01/25 13:20:20;;;;;;;;;;;;;;;;;;4971206;28;20391;-54
2021/01/25 13:22:46;;;;;;;8.80;6.40;;;;;;;;;;4970623;28;20283;-55
2021/01/25 13:25:11;;;;;;;9.30;8.30;;;;;;;;;;4966993;28;25011;-54
2021/01/25 13:27:36;;;;;;;9.47;8.23;;;;;;;;;;4968750;28;25113;-54
2021/01/25 13:30:02;;;;;;;13.37;9.60;;;;;;;;;;4966172;28;20591;-55
2021/01/25 13:32:28;;;;;;;10.93;9.83;;;;;;;;;;4964397;28;20184;-53
2021/01/25 13:34:53;;;;;;;10.05;9.05;;;;;;;;;;4952834;28;20661;-54
2021/01/25 13:37:18;;;;;;;12.67;10.40;;;;;;;;;;4970271;28;20194;-53
2021/01/25 13:39:43;;;;;;;12.88;8.85;;;;;;;;;;4970572;28;20253;-54
2021/01/25 13:42:08;;;;;;;14.30;10.47;;;;;;;;;;4969931;28;20646;-55
2021/01/25 13:44:34;;;;;;;10.23;9.17;;;;;;;;;;4965395;28;20206;-54
2021/01/25 13:46:59;;;;;;;12.88;11.35;;;;;;;;;;4967528;28;24406;-55
2021/01/25 13:49:24;;;;;;;12.90;11.60;;;;;;;;;;4964301;28;24410;-54
2021/01/25 13:51:50;;;;;;;13.17;11.70;;;;;;;;;;4971462;28;20194;-55
2021/01/25 13:54:15;;;;;;;12.30;11.10;;;;;;;;;;4955743;28;20179;-53
2021/01/25 13:56:40;;;;;;;11.90;10.40;;;;;;;;;;4964134;28;20179;-53
2021/01/25 13:59:05;;;;;;;13.77;10.80;;;;;;;;;;4969034;28;20178;-54
2021/01/25 14:01:30;;;;;;;15.70;11.57;;;;;;;;;;4970066;28;20185;-53
2021/01/25 14:03:55;;;;;;;12.60;11.13;;;;;;;;;;4969775;28;20547;-53
2021/01/25 14:06:21;;;;;;;12.03;10.33;;;;;;;;;;4969511;28;20185;-53
2021/01/25 14:08:46;;;;;;;12.40;10.50;;;;;;;;;;4969705;28;20653;-54
2021/01/25 14:11:11;;;;;;;15.05;12.45;;;;;;;;;;4969686;28;20166;-54
2021/01/25 14:13:36;;;;;;;14.27;11.93;;;;;;;;;;4968692;28;20210;-53